sensor_id;sensor_type;location;lat;lon;timestamp;temperature;humidity
33827;DHT22;20128;45.582;5.298;2023-05-02T00:01:39;16.70;69.40
33827;DHT22;20128;45.582;5.298;2023-05-02T00:04:06;16.70;69.60
33827;DHT22;20128;45.582;5.298;2023-05-02T00:06:32;16.70;69.80
33827;DHT22;20128;45.582;5.298;2023-05-02T00:08:57;16.70;70.50
33827;DHT22;20128;45.582;5.298;2023-05-02T00:11:23;16.70;69.80
33827;DHT22;20128;45.582;5.298;2023-05-02T00:13:49;16.60;70.10
33827;DHT22;20128;45.582;5.298;2023-05-02T00:16:15;16.60;70.00
33827;DHT22;20128;45.582;5.298;2023-05-02T00:18:41;16.50;70.20
33827;DHT22;20128;45.582;5.298;2023-05-02T00:21:06;16.40;70.30
33827;DHT22;20128;45.582;5.298;2023-05-02T00:23:33;16.40;70.50
33827;DHT22;20128;45.582;5.298;2023-05-02T00:25:59;16.50;70.50
33827;DHT22;20128;45.582;5.298;2023-05-02T00:28:25;16.50;70.50
33827;DHT22;20128;45.582;5.298;2023-05-02T00:30:51;16.50;70.60
33827;DHT22;20128;45.582;5.298;2023-05-02T00:33:17;16.60;70.50
33827;DHT22;20128;45.582;5.298;2023-05-02T00:35:43;16.60;70.40
33827;DHT22;20128;45.582;5.298;2023-05-02T00:38:09;16.60;70.40
33827;DHT22;20128;45.582;5.298;2023-05-02T00:40:44;16.50;70.30
33827;DHT22;20128;45.582;5.298;2023-05-02T00:43:10;16.60;70.30
33827;DHT22;20128;45.582;5.298;2023-05-02T00:45:38;16.60;70.00
33827;DHT22;20128;45.582;5.298;2023-05-02T00:48:06;16.60;69.90
33827;DHT22;20128;45.582;5.298;2023-05-02T00:50:36;16.60;70.00
33827;DHT22;20128;45.582;5.298;2023-05-02T00:53:03;16.60;70.40
33827;DHT22;20128;45.582;5.298;2023-05-02T00:55:31;16.50;69.70
33827;DHT22;20128;45.582;5.298;2023-05-02T00:58:02;16.50;69.70
33827;DHT22;20128;45.582;5.298;2023-05-02T01:01:03;16.60;69.80
33827;DHT22;20128;45.582;5.298;2023-05-02T01:11:38;16.40;69.90
33827;DHT22;20128;45.582;5.298;2023-05-02T01:14:10;16.40;69.90
33827;DHT22;20128;45.582;5.298;2023-05-02T01:16:38;16.30;69.90
33827;DHT22;20128;45.582;5.298;2023-05-02T01:19:11;16.30;70.70
33827;DHT22;20128;45.582;5.298;2023-05-02T01:21:38;16.30;70.30
33827;DHT22;20128;45.582;5.298;2023-05-02T01:24:11;16.30;70.30
33827;DHT22;20128;45.582;5.298;2023-05-02T01:27:03;16.30;70.30
33827;DHT22;20128;45.582;5.298;2023-05-02T01:29:32;16.20;70.20
33827;DHT22;20128;45.582;5.298;2023-05-02T01:31:59;16.20;70.20
33827;DHT22;20128;45.582;5.298;2023-05-02T01:34:27;16.20;70.70
33827;DHT22;20128;45.582;5.298;2023-05-02T01:36:56;16.30;70.70
33827;DHT22;20128;45.582;5.298;2023-05-02T01:39:24;16.40;70.30
33827;DHT22;20128;45.582;5.298;2023-05-02T01:41:52;16.40;69.90
33827;DHT22;20128;45.582;5.298;2023-05-02T01:44:20;16.40;69.80
33827;DHT22;20128;45.582;5.298;2023-05-02T01:46:46;16.30;70.10
33827;DHT22;20128;45.582;5.298;2023-05-02T01:49:12;16.30;70.00
33827;DHT22;20128;45.582;5.298;2023-05-02T01:51:48;16.30;70.20
33827;DHT22;20128;45.582;5.298;2023-05-02T01:54:17;16.30;70.20
33827;DHT22;20128;45.582;5.298;2023-05-02T01:56:43;16.30;70.30
33827;DHT22;20128;45.582;5.298;2023-05-02T01:59:17;16.30;70.60
33827;DHT22;20128;45.582;5.298;2023-05-02T02:01:44;16.40;70.30
33827;DHT22;20128;45.582;5.298;2023-05-02T02:04:12;16.40;69.90
33827;DHT22;20128;45.582;5.298;2023-05-02T02:06:43;16.40;69.80
33827;DHT22;20128;45.582;5.298;2023-05-02T02:09:10;16.40;69.80
33827;DHT22;20128;45.582;5.298;2023-05-02T02:11:58;16.30;69.50
33827;DHT22;20128;45.582;5.298;2023-05-02T02:14:25;16.20;69.50
33827;DHT22;20128;45.582;5.298;2023-05-02T02:16:55;16.10;69.90
33827;DHT22;20128;45.582;5.298;2023-05-02T02:19:24;16.10;70.50
33827;DHT22;20128;45.582;5.298;2023-05-02T02:21:50;16.00;70.90
33827;DHT22;20128;45.582;5.298;2023-05-02T02:24:17;16.00;71.20
33827;DHT22;20128;45.582;5.298;2023-05-02T02:26:45;16.10;70.80
33827;DHT22;20128;45.582;5.298;2023-05-02T02:29:11;16.00;70.30
33827;DHT22;20128;45.582;5.298;2023-05-02T02:31:37;16.00;70.60
33827;DHT22;20128;45.582;5.298;2023-05-02T02:34:04;16.00;70.80
33827;DHT22;20128;45.582;5.298;2023-05-02T02:36:49;16.00;70.80
33827;DHT22;20128;45.582;5.298;2023-05-02T02:45:00;15.90;70.80
33827;DHT22;20128;45.582;5.298;2023-05-02T02:47:40;15.80;71.10
33827;DHT22;20128;45.582;5.298;2023-05-02T02:50:19;15.80;71.30
33827;DHT22;20128;45.582;5.298;2023-05-02T02:53:07;15.70;71.40
33827;DHT22;20128;45.582;5.298;2023-05-02T02:55:56;15.60;71.40
33827;DHT22;20128;45.582;5.298;2023-05-02T03:00:54;15.60;72.00
33827;DHT22;20128;45.582;5.298;2023-05-02T03:03:21;15.60;71.90
33827;DHT22;20128;45.582;5.298;2023-05-02T03:05:56;15.50;72.30
33827;DHT22;20128;45.582;5.298;2023-05-02T03:08:22;15.60;72.40
33827;DHT22;20128;45.582;5.298;2023-05-02T03:10:48;15.60;72.40
33827;DHT22;20128;45.582;5.298;2023-05-02T03:13:14;15.60;72.20
33827;DHT22;20128;45.582;5.298;2023-05-02T03:18:38;15.60;72.50
33827;DHT22;20128;45.582;5.298;2023-05-02T03:21:04;15.60;72.20
33827;DHT22;20128;45.582;5.298;2023-05-02T03:23:30;15.60;72.20
33827;DHT22;20128;45.582;5.298;2023-05-02T03:25:56;15.50;72.30
33827;DHT22;20128;45.582;5.298;2023-05-02T03:28:22;15.40;72.50
33827;DHT22;20128;45.582;5.298;2023-05-02T03:30:47;15.30;72.50
33827;DHT22;20128;45.582;5.298;2023-05-02T03:33:13;15.30;72.90
33827;DHT22;20128;45.582;5.298;2023-05-02T03:35:39;15.30;73.10
33827;DHT22;20128;45.582;5.298;2023-05-02T03:38:04;15.30;73.10
33827;DHT22;20128;45.582;5.298;2023-05-02T03:40:30;15.30;73.30
33827;DHT22;20128;45.582;5.298;2023-05-02T03:42:56;15.20;73.40
33827;DHT22;20128;45.582;5.298;2023-05-02T03:45:21;15.30;74.00
33827;DHT22;20128;45.582;5.298;2023-05-02T03:47:47;15.30;73.30
33827;DHT22;20128;45.582;5.298;2023-05-02T03:50:13;15.30;73.30
33827;DHT22;20128;45.582;5.298;2023-05-02T03:52:38;15.30;73.40
33827;DHT22;20128;45.582;5.298;2023-05-02T03:55:04;15.20;73.10
33827;DHT22;20128;45.582;5.298;2023-05-02T03:57:32;15.10;73.50
33827;DHT22;20128;45.582;5.298;2023-05-02T03:59:57;15.10;74.00
33827;DHT22;20128;45.582;5.298;2023-05-02T04:02:24;14.90;74.10
33827;DHT22;20128;45.582;5.298;2023-05-02T04:04:50;14.80;74.60
33827;DHT22;20128;45.582;5.298;2023-05-02T04:07:18;14.80;75.10
33827;DHT22;20128;45.582;5.298;2023-05-02T04:09:46;14.80;74.90
33827;DHT22;20128;45.582;5.298;2023-05-02T04:12:11;14.80;75.10
33827;DHT22;20128;45.582;5.298;2023-05-02T04:14:37;14.80;75.20
33827;DHT22;20128;45.582;5.298;2023-05-02T04:17:03;14.80;75.60
33827;DHT22;20128;45.582;5.298;2023-05-02T04:19:28;14.80;75.50
33827;DHT22;20128;45.582;5.298;2023-05-02T04:21:54;14.80;75.50
33827;DHT22;20128;45.582;5.298;2023-05-02T04:24:20;14.80;75.60
33827;DHT22;20128;45.582;5.298;2023-05-02T04:26:46;14.70;75.60
33827;DHT22;20128;45.582;5.298;2023-05-02T04:29:13;14.70;75.90
33827;DHT22;20128;45.582;5.298;2023-05-02T04:31:39;14.80;76.00
33827;DHT22;20128;45.582;5.298;2023-05-02T04:34:06;14.80;75.70
33827;DHT22;20128;45.582;5.298;2023-05-02T04:36:31;14.90;76.00
33827;DHT22;20128;45.582;5.298;2023-05-02T04:38:58;14.90;75.60
33827;DHT22;20128;45.582;5.298;2023-05-02T04:41:24;14.90;75.30
33827;DHT22;20128;45.582;5.298;2023-05-02T04:43:50;14.90;75.70
33827;DHT22;20128;45.582;5.298;2023-05-02T04:46:16;14.80;75.60
33827;DHT22;20128;45.582;5.298;2023-05-02T04:48:45;14.80;76.00
33827;DHT22;20128;45.582;5.298;2023-05-02T04:51:11;14.80;76.10
33827;DHT22;20128;45.582;5.298;2023-05-02T04:53:37;14.80;76.30
33827;DHT22;20128;45.582;5.298;2023-05-02T04:56:03;14.70;76.30
33827;DHT22;20128;45.582;5.298;2023-05-02T04:58:29;14.70;76.60
33827;DHT22;20128;45.582;5.298;2023-05-02T05:00:54;14.60;76.40
33827;DHT22;20128;45.582;5.298;2023-05-02T05:03:20;14.50;76.80
33827;DHT22;20128;45.582;5.298;2023-05-02T05:05:46;14.50;77.10
33827;DHT22;20128;45.582;5.298;2023-05-02T05:08:12;14.40;77.10
33827;DHT22;20128;45.582;5.298;2023-05-02T05:10:38;14.40;77.50
33827;DHT22;20128;45.582;5.298;2023-05-02T05:13:05;14.40;77.90
33827;DHT22;20128;45.582;5.298;2023-05-02T05:15:31;14.40;77.70
33827;DHT22;20128;45.582;5.298;2023-05-02T05:17:56;14.40;77.90
33827;DHT22;20128;45.582;5.298;2023-05-02T05:20:23;14.30;77.90
33827;DHT22;20128;45.582;5.298;2023-05-02T05:22:48;14.30;78.00
33827;DHT22;20128;45.582;5.298;2023-05-02T05:25:14;14.30;78.00
33827;DHT22;20128;45.582;5.298;2023-05-02T05:27:40;14.40;78.30
33827;DHT22;20128;45.582;5.298;2023-05-02T05:30:06;14.40;78.00
33827;DHT22;20128;45.582;5.298;2023-05-02T05:32:33;14.40;78.20
33827;DHT22;20128;45.582;5.298;2023-05-02T05:34:59;14.40;78.10
33827;DHT22;20128;45.582;5.298;2023-05-02T05:37:25;14.30;78.00
33827;DHT22;20128;45.582;5.298;2023-05-02T05:39:50;14.30;78.50
33827;DHT22;20128;45.582;5.298;2023-05-02T05:42:16;14.30;78.80
33827;DHT22;20128;45.582;5.298;2023-05-02T05:44:42;14.40;78.80
33827;DHT22;20128;45.582;5.298;2023-05-02T05:47:07;14.50;78.50
33827;DHT22;20128;45.582;5.298;2023-05-02T05:49:33;14.50;78.30
33827;DHT22;20128;45.582;5.298;2023-05-02T05:52:00;14.50;78.00
33827;DHT22;20128;45.582;5.298;2023-05-02T05:54:26;14.60;78.10
33827;DHT22;20128;45.582;5.298;2023-05-02T05:56:52;14.60;77.90
33827;DHT22;20128;45.582;5.298;2023-05-02T05:59:18;14.60;77.50
33827;DHT22;20128;45.582;5.298;2023-05-02T06:01:44;14.70;77.60
33827;DHT22;20128;45.582;5.298;2023-05-02T06:04:10;14.70;77.60
33827;DHT22;20128;45.582;5.298;2023-05-02T06:06:35;14.70;77.40
33827;DHT22;20128;45.582;5.298;2023-05-02T06:09:01;14.70;77.60
33827;DHT22;20128;45.582;5.298;2023-05-02T06:11:27;14.80;77.00
33827;DHT22;20128;45.582;5.298;2023-05-02T06:13:52;14.90;77.10
33827;DHT22;20128;45.582;5.298;2023-05-02T06:16:18;14.80;77.00
33827;DHT22;20128;45.582;5.298;2023-05-02T06:18:45;14.90;77.20
33827;DHT22;20128;45.582;5.298;2023-05-02T06:21:11;15.00;76.90
33827;DHT22;20128;45.582;5.298;2023-05-02T06:23:36;15.00;77.20
33827;DHT22;20128;45.582;5.298;2023-05-02T06:26:03;15.00;76.80
33827;DHT22;20128;45.582;5.298;2023-05-02T06:28:30;15.10;76.60
33827;DHT22;20128;45.582;5.298;2023-05-02T06:31:03;15.10;76.50
33827;DHT22;20128;45.582;5.298;2023-05-02T06:33:30;15.10;76.40
33827;DHT22;20128;45.582;5.298;2023-05-02T06:35:56;15.10;76.40
33827;DHT22;20128;45.582;5.298;2023-05-02T06:38:22;15.20;76.20
33827;DHT22;20128;45.582;5.298;2023-05-02T06:40:48;15.20;76.40
33827;DHT22;20128;45.582;5.298;2023-05-02T06:43:15;15.30;76.30
33827;DHT22;20128;45.582;5.298;2023-05-02T06:45:41;15.40;75.60
33827;DHT22;20128;45.582;5.298;2023-05-02T06:48:07;15.40;75.90
33827;DHT22;20128;45.582;5.298;2023-05-02T06:50:33;15.40;76.00
33827;DHT22;20128;45.582;5.298;2023-05-02T06:52:59;15.40;75.90
33827;DHT22;20128;45.582;5.298;2023-05-02T06:55:26;15.30;75.60
33827;DHT22;20128;45.582;5.298;2023-05-02T06:57:52;15.30;75.70
33827;DHT22;20128;45.582;5.298;2023-05-02T07:00:19;15.20;76.40
33827;DHT22;20128;45.582;5.298;2023-05-02T07:02:45;15.20;76.20
33827;DHT22;20128;45.582;5.298;2023-05-02T07:05:12;15.20;76.10
33827;DHT22;20128;45.582;5.298;2023-05-02T07:07:42;15.20;76.30
33827;DHT22;20128;45.582;5.298;2023-05-02T07:10:08;15.10;76.30
33827;DHT22;20128;45.582;5.298;2023-05-02T07:12:34;15.10;76.60
33827;DHT22;20128;45.582;5.298;2023-05-02T07:15:00;15.10;76.60
33827;DHT22;20128;45.582;5.298;2023-05-02T07:17:26;15.10;76.50
33827;DHT22;20128;45.582;5.298;2023-05-02T07:19:52;15.10;76.70
33827;DHT22;20128;45.582;5.298;2023-05-02T07:22:18;15.10;76.60
33827;DHT22;20128;45.582;5.298;2023-05-02T07:24:44;15.20;76.60
33827;DHT22;20128;45.582;5.298;2023-05-02T07:27:10;15.30;76.60
33827;DHT22;20128;45.582;5.298;2023-05-02T07:29:36;15.30;76.30
33827;DHT22;20128;45.582;5.298;2023-05-02T07:32:02;15.40;76.20
33827;DHT22;20128;45.582;5.298;2023-05-02T07:34:28;15.40;76.00
33827;DHT22;20128;45.582;5.298;2023-05-02T07:36:54;15.40;76.00
33827;DHT22;20128;45.582;5.298;2023-05-02T07:39:21;15.40;75.40
33827;DHT22;20128;45.582;5.298;2023-05-02T07:41:50;15.40;75.10
33827;DHT22;20128;45.582;5.298;2023-05-02T07:44:16;15.30;75.00
33827;DHT22;20128;45.582;5.298;2023-05-02T07:46:42;15.30;75.20
33827;DHT22;20128;45.582;5.298;2023-05-02T07:49:07;15.40;75.40
33827;DHT22;20128;45.582;5.298;2023-05-02T07:51:33;15.40;75.00
33827;DHT22;20128;45.582;5.298;2023-05-02T07:53:59;15.40;75.10
33827;DHT22;20128;45.582;5.298;2023-05-02T07:56:26;15.40;75.40
33827;DHT22;20128;45.582;5.298;2023-05-02T07:58:52;15.40;74.70
33827;DHT22;20128;45.582;5.298;2023-05-02T08:01:18;15.40;74.60
33827;DHT22;20128;45.582;5.298;2023-05-02T08:03:44;15.60;74.50
33827;DHT22;20128;45.582;5.298;2023-05-02T08:06:10;15.70;74.50
33827;DHT22;20128;45.582;5.298;2023-05-02T08:08:36;15.80;74.30
33827;DHT22;20128;45.582;5.298;2023-05-02T08:11:01;15.90;74.00
33827;DHT22;20128;45.582;5.298;2023-05-02T08:13:27;16.10;73.80
33827;DHT22;20128;45.582;5.298;2023-05-02T08:15:53;16.20;72.60
33827;DHT22;20128;45.582;5.298;2023-05-02T08:18:26;16.30;72.70
33827;DHT22;20128;45.582;5.298;2023-05-02T08:20:53;16.40;71.50
33827;DHT22;20128;45.582;5.298;2023-05-02T08:23:20;16.40;71.80
33827;DHT22;20128;45.582;5.298;2023-05-02T08:25:45;16.50;71.70
33827;DHT22;20128;45.582;5.298;2023-05-02T08:28:11;16.60;71.50
33827;DHT22;20128;45.582;5.298;2023-05-02T08:30:36;16.60;70.70
33827;DHT22;20128;45.582;5.298;2023-05-02T08:33:02;16.60;71.00
33827;DHT22;20128;45.582;5.298;2023-05-02T08:35:28;16.70;71.30
33827;DHT22;20128;45.582;5.298;2023-05-02T08:37:56;16.80;71.20
33827;DHT22;20128;45.582;5.298;2023-05-02T08:40:22;16.90;71.00
33827;DHT22;20128;45.582;5.298;2023-05-02T08:42:48;16.90;70.00
33827;DHT22;20128;45.582;5.298;2023-05-02T08:45:15;16.90;70.00
33827;DHT22;20128;45.582;5.298;2023-05-02T08:47:41;17.10;70.00
33827;DHT22;20128;45.582;5.298;2023-05-02T08:50:09;17.20;70.20
33827;DHT22;20128;45.582;5.298;2023-05-02T08:52:35;17.30;69.50
33827;DHT22;20128;45.582;5.298;2023-05-02T08:55:02;17.40;68.80
33827;DHT22;20128;45.582;5.298;2023-05-02T08:57:29;17.50;68.70
33827;DHT22;20128;45.582;5.298;2023-05-02T08:59:55;17.50;67.90
33827;DHT22;20128;45.582;5.298;2023-05-02T09:05:06;17.70;67.50
33827;DHT22;20128;45.582;5.298;2023-05-02T09:07:44;17.80;67.10
33827;DHT22;20128;45.582;5.298;2023-05-02T09:10:11;17.90;67.20
33827;DHT22;20128;45.582;5.298;2023-05-02T09:12:37;18.10;66.90
33827;DHT22;20128;45.582;5.298;2023-05-02T09:15:14;18.10;65.90
33827;DHT22;20128;45.582;5.298;2023-05-02T09:17:42;18.00;65.60
33827;DHT22;20128;45.582;5.298;2023-05-02T09:20:13;18.10;66.70
33827;DHT22;20128;45.582;5.298;2023-05-02T09:22:47;18.20;67.10
33827;DHT22;20128;45.582;5.298;2023-05-02T09:25:14;18.50;66.60
33827;DHT22;20128;45.582;5.298;2023-05-02T09:30:23;18.90;65.60
33827;DHT22;20128;45.582;5.298;2023-05-02T09:32:50;19.00;64.00
33827;DHT22;20128;45.582;5.298;2023-05-02T09:35:17;18.90;63.50
33827;DHT22;20128;45.582;5.298;2023-05-02T09:37:53;18.80;64.00
33827;DHT22;20128;45.582;5.298;2023-05-02T09:40:19;19.00;64.60
33827;DHT22;20128;45.582;5.298;2023-05-02T09:42:45;19.10;64.70
33827;DHT22;20128;45.582;5.298;2023-05-02T09:45:24;19.20;63.70
33827;DHT22;20128;45.582;5.298;2023-05-02T09:47:51;19.10;63.80
33827;DHT22;20128;45.582;5.298;2023-05-02T09:50:37;19.00;63.80
33827;DHT22;20128;45.582;5.298;2023-05-02T09:53:04;19.00;64.80
33827;DHT22;20128;45.582;5.298;2023-05-02T09:55:30;19.00;64.40
33827;DHT22;20128;45.582;5.298;2023-05-02T09:57:57;19.00;64.30
33827;DHT22;20128;45.582;5.298;2023-05-02T10:00:37;19.00;64.30
33827;DHT22;20128;45.582;5.298;2023-05-02T10:03:05;19.00;64.70
33827;DHT22;20128;45.582;5.298;2023-05-02T10:05:37;19.20;63.90
33827;DHT22;20128;45.582;5.298;2023-05-02T10:08:06;19.20;64.30
33827;DHT22;20128;45.582;5.298;2023-05-02T10:10:35;19.20;63.70
33827;DHT22;20128;45.582;5.298;2023-05-02T10:13:03;19.30;63.40
33827;DHT22;20128;45.582;5.298;2023-05-02T10:15:31;19.40;63.60
33827;DHT22;20128;45.582;5.298;2023-05-02T10:17:58;19.30;62.70
33827;DHT22;20128;45.582;5.298;2023-05-02T10:20:30;19.40;63.30
33827;DHT22;20128;45.582;5.298;2023-05-02T10:22:59;19.40;63.10
33827;DHT22;20128;45.582;5.298;2023-05-02T10:25:25;19.30;63.30
33827;DHT22;20128;45.582;5.298;2023-05-02T10:27:52;19.20;63.30
33827;DHT22;20128;45.582;5.298;2023-05-02T10:30:18;19.40;63.80
33827;DHT22;20128;45.582;5.298;2023-05-02T10:32:46;19.70;63.90
33827;DHT22;20128;45.582;5.298;2023-05-02T10:35:14;19.90;62.90
33827;DHT22;20128;45.582;5.298;2023-05-02T10:37:41;20.00;62.40
33827;DHT22;20128;45.582;5.298;2023-05-02T10:40:10;20.20;61.70
33827;DHT22;20128;45.582;5.298;2023-05-02T10:42:38;20.40;60.70
33827;DHT22;20128;45.582;5.298;2023-05-02T10:45:52;20.60;60.90
33827;DHT22;20128;45.582;5.298;2023-05-02T10:50:57;20.70;60.20
33827;DHT22;20128;45.582;5.298;2023-05-02T10:53:33;20.60;60.20
33827;DHT22;20128;45.582;5.298;2023-05-02T10:56:19;20.70;60.40
33827;DHT22;20128;45.582;5.298;2023-05-02T10:58:52;20.60;59.80
33827;DHT22;20128;45.582;5.298;2023-05-02T11:04:02;20.30;60.20
33827;DHT22;20128;45.582;5.298;2023-05-02T11:06:30;20.30;60.40
33827;DHT22;20128;45.582;5.298;2023-05-02T11:11:46;20.40;60.40
33827;DHT22;20128;45.582;5.298;2023-05-02T11:17:04;20.60;60.40
33827;DHT22;20128;45.582;5.298;2023-05-02T11:24:51;20.70;60.90
33827;DHT22;20128;45.582;5.298;2023-05-02T11:35:18;21.40;58.80
33827;DHT22;20128;45.582;5.298;2023-05-02T11:37:53;21.40;58.00
33827;DHT22;20128;45.582;5.298;2023-05-02T11:40:19;21.30;58.00
33827;DHT22;20128;45.582;5.298;2023-05-02T11:42:45;21.40;58.20
33827;DHT22;20128;45.582;5.298;2023-05-02T11:45:11;21.40;58.20
33827;DHT22;20128;45.582;5.298;2023-05-02T11:47:37;21.30;58.70
33827;DHT22;20128;45.582;5.298;2023-05-02T11:50:04;21.20;59.10
33827;DHT22;20128;45.582;5.298;2023-05-02T11:52:30;21.30;59.50
33827;DHT22;20128;45.582;5.298;2023-05-02T11:55:01;21.20;59.20
33827;DHT22;20128;45.582;5.298;2023-05-02T11:57:26;21.30;58.40
33827;DHT22;20128;45.582;5.298;2023-05-02T11:59:54;21.30;58.70
33827;DHT22;20128;45.582;5.298;2023-05-02T12:02:38;21.30;58.90
33827;DHT22;20128;45.582;5.298;2023-05-02T12:05:04;21.30;58.70
33827;DHT22;20128;45.582;5.298;2023-05-02T12:07:43;21.20;59.00
33827;DHT22;20128;45.582;5.298;2023-05-02T12:10:10;21.10;58.40
33827;DHT22;20128;45.582;5.298;2023-05-02T12:12:36;21.00;58.80
33827;DHT22;20128;45.582;5.298;2023-05-02T12:15:08;21.10;58.90
33827;DHT22;20128;45.582;5.298;2023-05-02T12:17:37;21.10;58.60
33827;DHT22;20128;45.582;5.298;2023-05-02T12:20:06;21.10;59.20
33827;DHT22;20128;45.582;5.298;2023-05-02T12:22:32;21.10;59.40
33827;DHT22;20128;45.582;5.298;2023-05-02T12:24:58;21.10;59.50
33827;DHT22;20128;45.582;5.298;2023-05-02T12:27:24;21.10;59.10
33827;DHT22;20128;45.582;5.298;2023-05-02T12:29:50;21.20;59.10
33827;DHT22;20128;45.582;5.298;2023-05-02T12:32:30;21.30;58.80
33827;DHT22;20128;45.582;5.298;2023-05-02T12:34:56;21.40;58.50
33827;DHT22;20128;45.582;5.298;2023-05-02T12:37:26;21.60;58.00
33827;DHT22;20128;45.582;5.298;2023-05-02T12:39:53;21.70;58.00
33827;DHT22;20128;45.582;5.298;2023-05-02T12:42:22;21.80;57.70
33827;DHT22;20128;45.582;5.298;2023-05-02T12:44:49;21.80;57.00
33827;DHT22;20128;45.582;5.298;2023-05-02T12:47:17;21.90;56.60
33827;DHT22;20128;45.582;5.298;2023-05-02T12:49:57;21.90;56.70
33827;DHT22;20128;45.582;5.298;2023-05-02T12:52:46;21.90;56.20
33827;DHT22;20128;45.582;5.298;2023-05-02T12:55:24;21.80;56.90
33827;DHT22;20128;45.582;5.298;2023-05-02T12:57:59;21.90;56.20
33827;DHT22;20128;45.582;5.298;2023-05-02T13:00:25;21.90;56.10
33827;DHT22;20128;45.582;5.298;2023-05-02T13:02:50;21.80;56.30
33827;DHT22;20128;45.582;5.298;2023-05-02T13:05:18;21.80;55.50
33827;DHT22;20128;45.582;5.298;2023-05-02T13:07:44;21.70;55.90
33827;DHT22;20128;45.582;5.298;2023-05-02T13:10:10;21.70;56.10
33827;DHT22;20128;45.582;5.298;2023-05-02T13:12:36;21.80;56.50
33827;DHT22;20128;45.582;5.298;2023-05-02T13:15:07;21.90;56.00
33827;DHT22;20128;45.582;5.298;2023-05-02T13:17:33;22.00;56.30
33827;DHT22;20128;45.582;5.298;2023-05-02T13:19:59;22.10;55.30
33827;DHT22;20128;45.582;5.298;2023-05-02T13:22:26;22.10;55.10
33827;DHT22;20128;45.582;5.298;2023-05-02T13:24:51;22.10;55.40
33827;DHT22;20128;45.582;5.298;2023-05-02T13:27:17;22.00;55.40
33827;DHT22;20128;45.582;5.298;2023-05-02T13:29:44;22.10;55.80
33827;DHT22;20128;45.582;5.298;2023-05-02T13:32:10;22.20;55.60
33827;DHT22;20128;45.582;5.298;2023-05-02T13:34:35;22.10;54.90
33827;DHT22;20128;45.582;5.298;2023-05-02T13:37:01;22.10;54.60
33827;DHT22;20128;45.582;5.298;2023-05-02T13:39:27;22.10;55.10
33827;DHT22;20128;45.582;5.298;2023-05-02T13:41:53;22.20;55.20
33827;DHT22;20128;45.582;5.298;2023-05-02T13:44:18;22.20;54.90
33827;DHT22;20128;45.582;5.298;2023-05-02T13:46:44;22.20;54.20
33827;DHT22;20128;45.582;5.298;2023-05-02T13:49:09;22.30;54.70
33827;DHT22;20128;45.582;5.298;2023-05-02T13:51:35;22.40;55.00
33827;DHT22;20128;45.582;5.298;2023-05-02T13:54:01;22.60;55.10
33827;DHT22;20128;45.582;5.298;2023-05-02T13:56:27;22.60;54.60
33827;DHT22;20128;45.582;5.298;2023-05-02T13:58:52;22.60;54.20
33827;DHT22;20128;45.582;5.298;2023-05-02T14:01:18;22.60;54.30
33827;DHT22;20128;45.582;5.298;2023-05-02T14:03:44;22.70;54.30
33827;DHT22;20128;45.582;5.298;2023-05-02T14:06:09;22.80;53.70
33827;DHT22;20128;45.582;5.298;2023-05-02T14:08:35;22.90;52.80
33827;DHT22;20128;45.582;5.298;2023-05-02T14:11:01;22.80;52.70
33827;DHT22;20128;45.582;5.298;2023-05-02T14:13:26;22.80;53.30
33827;DHT22;20128;45.582;5.298;2023-05-02T14:15:52;22.70;53.30
33827;DHT22;20128;45.582;5.298;2023-05-02T14:18:19;22.60;52.90
33827;DHT22;20128;45.582;5.298;2023-05-02T14:20:44;22.60;53.10
33827;DHT22;20128;45.582;5.298;2023-05-02T14:23:10;22.60;53.20
33827;DHT22;20128;45.582;5.298;2023-05-02T14:25:36;22.60;53.00
33827;DHT22;20128;45.582;5.298;2023-05-02T14:28:02;22.70;53.20
33827;DHT22;20128;45.582;5.298;2023-05-02T14:30:28;22.80;52.90
33827;DHT22;20128;45.582;5.298;2023-05-02T14:32:54;22.80;52.30
33827;DHT22;20128;45.582;5.298;2023-05-02T14:35:20;22.80;52.60
33827;DHT22;20128;45.582;5.298;2023-05-02T14:37:46;22.90;52.50
33827;DHT22;20128;45.582;5.298;2023-05-02T14:40:12;23.00;51.70
33827;DHT22;20128;45.582;5.298;2023-05-02T14:42:41;23.10;51.50
33827;DHT22;20128;45.582;5.298;2023-05-02T14:45:08;23.10;51.10
33827;DHT22;20128;45.582;5.298;2023-05-02T14:47:34;23.10;50.50
33827;DHT22;20128;45.582;5.298;2023-05-02T14:50:01;23.00;50.90
33827;DHT22;20128;45.582;5.298;2023-05-02T14:52:27;22.90;50.60
33827;DHT22;20128;45.582;5.298;2023-05-02T14:54:53;22.90;51.10
33827;DHT22;20128;45.582;5.298;2023-05-02T14:57:19;23.00;51.30
33827;DHT22;20128;45.582;5.298;2023-05-02T14:59:44;22.90;51.40
33827;DHT22;20128;45.582;5.298;2023-05-02T15:02:10;23.00;51.00
33827;DHT22;20128;45.582;5.298;2023-05-02T15:04:36;23.00;51.20
33827;DHT22;20128;45.582;5.298;2023-05-02T15:07:02;23.00;51.20
33827;DHT22;20128;45.582;5.298;2023-05-02T15:09:28;23.10;51.20
33827;DHT22;20128;45.582;5.298;2023-05-02T15:11:55;23.20;50.90
33827;DHT22;20128;45.582;5.298;2023-05-02T15:14:21;23.30;50.70
33827;DHT22;20128;45.582;5.298;2023-05-02T15:16:46;23.40;50.70
33827;DHT22;20128;45.582;5.298;2023-05-02T15:19:12;23.40;50.20
33827;DHT22;20128;45.582;5.298;2023-05-02T15:21:38;23.40;49.80
33827;DHT22;20128;45.582;5.298;2023-05-02T15:24:04;23.40;50.10
33827;DHT22;20128;45.582;5.298;2023-05-02T15:26:30;23.50;49.70
33827;DHT22;20128;45.582;5.298;2023-05-02T15:28:56;23.60;49.70
33827;DHT22;20128;45.582;5.298;2023-05-02T15:31:21;23.70;49.20
33827;DHT22;20128;45.582;5.298;2023-05-02T15:33:47;23.70;48.10
33827;DHT22;20128;45.582;5.298;2023-05-02T15:36:13;23.60;48.30
33827;DHT22;20128;45.582;5.298;2023-05-02T15:38:39;23.40;48.60
33827;DHT22;20128;45.582;5.298;2023-05-02T15:41:07;23.30;48.90
33827;DHT22;20128;45.582;5.298;2023-05-02T15:43:33;23.30;49.30
33827;DHT22;20128;45.582;5.298;2023-05-02T15:45:59;23.20;49.10
33827;DHT22;20128;45.582;5.298;2023-05-02T15:48:29;23.10;48.70
33827;DHT22;20128;45.582;5.298;2023-05-02T15:50:55;23.10;49.40
33827;DHT22;20128;45.582;5.298;2023-05-02T15:53:22;23.10;49.40
33827;DHT22;20128;45.582;5.298;2023-05-02T15:55:49;23.20;49.00
33827;DHT22;20128;45.582;5.298;2023-05-02T15:58:15;23.10;48.80
33827;DHT22;20128;45.582;5.298;2023-05-02T16:00:42;23.00;48.50
33827;DHT22;20128;45.582;5.298;2023-05-02T16:03:08;23.00;48.70
33827;DHT22;20128;45.582;5.298;2023-05-02T16:05:34;22.90;48.90
33827;DHT22;20128;45.582;5.298;2023-05-02T16:08:00;22.80;49.00
33827;DHT22;20128;45.582;5.298;2023-05-02T16:10:27;22.70;48.60
33827;DHT22;20128;45.582;5.298;2023-05-02T16:12:53;22.80;48.90
33827;DHT22;20128;45.582;5.298;2023-05-02T16:15:19;22.90;48.60
33827;DHT22;20128;45.582;5.298;2023-05-02T16:17:45;22.90;48.30
33827;DHT22;20128;45.582;5.298;2023-05-02T16:20:13;22.80;48.30
33827;DHT22;20128;45.582;5.298;2023-05-02T16:22:45;22.90;48.20